Aérodrome :
LOGIN :

S'inscrire | Disclaimer

   EN    FR    IT 

 










Légende :    VFR   VFR Marginal   IFR   IFR Intensif   IFR Très Intensif
Visi : 
Plafond : 
>= 8 km
>= 3000ft
5 à 8 km
1000 à 3000 ft
1500m à 5 km
500 à 1000 ft
800 à 1500m
200 à 500 ft
< 800m
< 200 ft
Symboles :   Orages  Brouillard  Fortes neiges  Fortes précipitations  Vent > 20 kt
SIGMETs :   Divers  Orages  Givrage  Turbulence  Onde Orograph.  Cendres Volcan.







- Altitude de l'aérodrome : 665 ft
- Code IATA : NOC


EIKN - Connaught / Knock- Ireland West

DERNIER METAR :
  • 181430Z 27016KT 9999 FEW020CB SCT026 16/10 Q1009 NOSIG

METARs EXPIRÉS :
  • 181400Z 27016KT 9999 FEW020CB SCT026 18/10 Q1008 NOSIG
  • 181330Z 27016KT 9999 FEW020CB SCT026 17/11 Q1009 NOSIG
  • 181300Z 27018KT 9999 FEW021CB SCT026 BKN050 17/10 Q1009 NOSIG
  • 181230Z 26015KT 230V290 9999 FEW020CB SCT025 BKN050 17/10 Q1009 NOSIG
  • 181200Z 26015KT 9999 FEW020CB BKN030 BKN050 17/10 Q1008 NOSIG

TAF TAF EIKN
Valide du 18 à 12h jusqu'au 19 à 12h UTC


181100Z 1812/1912 25013KT 9999 FEW015 BKN040
TEMPO 1812/1816 SHRA BKN008 BKN018CB
BECMG 1820/1822 21005KT
BECMG 1908/1910 4000 -RA BKN010
TEMPO 1910/1912 2000 RA BKN003
Pas de NOTAMs connus pour ce terrain.



MET'MAP, la Météo Aéronautique d'un coup d'oeil ! - Copyright ORBIFLY Décembre 2007 - Disclaimer

ORBIFLY MET'MAP TEAM :

Programmation & Développement : Alexandra Zaïnal
Conception & Développement : Baudouin d'Aumeries
Co-Programmation & Développement : Marc-Olivier Méhu
Soutien technique & logistique : Manuel Goepfert

Contact : metmap@orbifly.com




SOURCES & CREDITS :

   NOAA